createdAt,value
2019-04-29T00:00:44.242Z,3.57
2019-04-29T00:03:10.088Z,3.50
2019-04-29T00:05:35.673Z,3.67
2019-04-29T00:08:01.216Z,3.40
2019-04-29T00:10:27.196Z,3.97
2019-04-29T00:12:52.658Z,3.50
2019-04-29T00:15:38.911Z,3.97
2019-04-29T00:18:08.594Z,4.00
2019-04-29T00:20:48.714Z,3.93
2019-04-29T00:23:14.559Z,3.60
2019-04-29T00:25:40.015Z,4.17
2019-04-29T00:28:05.575Z,3.60
2019-04-29T00:30:31.048Z,3.57
2019-04-29T00:32:56.641Z,3.77
2019-04-29T00:35:22.047Z,3.90
2019-04-29T00:38:00.768Z,3.67
2019-04-29T00:40:50.964Z,4.03
2019-04-29T00:43:30.122Z,4.03
2019-04-29T00:45:55.633Z,3.63
2019-04-29T00:48:21.097Z,4.13
2019-04-29T00:50:46.585Z,4.00
2019-04-29T00:53:12.145Z,3.70
2019-04-29T00:55:37.603Z,3.83
2019-04-29T00:58:03.108Z,3.77
2019-04-29T01:00:36.408Z,3.40
2019-04-29T01:03:02.209Z,3.77
2019-04-29T01:05:27.685Z,3.53
2019-04-29T01:07:53.348Z,3.77
2019-04-29T01:10:18.989Z,3.50
2019-04-29T01:12:44.679Z,3.67
2019-04-29T01:15:10.258Z,4.00
2019-04-29T01:17:35.889Z,4.20
2019-04-29T01:20:01.464Z,3.40
2019-04-29T01:22:27.126Z,3.80
2019-04-29T01:24:52.702Z,3.90
2019-04-29T01:27:25.842Z,3.97
2019-04-29T01:29:51.855Z,3.40
2019-04-29T01:32:17.352Z,4.00
2019-04-29T01:34:49.719Z,3.90
2019-04-29T01:37:15.451Z,3.57
2019-04-29T01:39:46.761Z,3.97
2019-04-29T01:42:22.662Z,3.80
2019-04-29T01:44:48.133Z,4.43
2019-04-29T01:47:13.547Z,3.80
2019-04-29T01:49:39.469Z,3.43
2019-04-29T01:52:04.948Z,3.53
2019-04-29T01:54:30.411Z,3.53
2019-04-29T01:56:55.883Z,3.93
2019-04-29T01:59:21.467Z,3.70
2019-04-29T02:01:46.927Z,3.83
2019-04-29T02:04:12.397Z,3.50
2019-04-29T02:06:37.876Z,3.80
2019-04-29T02:09:05.130Z,3.47
2019-04-29T02:11:30.788Z,3.80
2019-04-29T02:13:56.531Z,3.50
2019-04-29T02:16:21.949Z,3.90
2019-04-29T02:18:47.396Z,3.77
2019-04-29T02:21:13.140Z,3.77
2019-04-29T02:24:03.483Z,3.50
2019-04-29T02:26:28.951Z,3.63
2019-04-29T02:28:54.419Z,3.70
2019-04-29T02:31:37.371Z,3.67
2019-04-29T02:34:02.815Z,3.30
2019-04-29T02:36:30.040Z,3.97
2019-04-29T02:39:19.973Z,3.60
2019-04-29T02:41:53.382Z,3.63
2019-04-29T02:44:18.892Z,3.90
2019-04-29T02:46:44.333Z,4.53
2019-04-29T02:49:10.109Z,4.10
2019-04-29T02:51:53.193Z,4.03
2019-04-29T02:54:18.665Z,4.27
2019-04-29T02:56:46.614Z,3.50
2019-04-29T02:59:13.021Z,3.90
2019-04-29T03:01:51.605Z,4.07
2019-04-29T03:04:19.595Z,4.27
2019-04-29T03:06:45.162Z,4.07
2019-04-29T03:09:11.057Z,4.20
2019-04-29T03:11:36.499Z,4.17
2019-04-29T03:14:02.048Z,4.20
2019-04-29T03:16:27.772Z,4.53
2019-04-29T03:18:58.034Z,4.50
2019-04-29T03:21:51.554Z,4.70
2019-04-29T03:24:16.934Z,4.20
2019-04-29T03:26:42.371Z,5.27
2019-04-29T03:29:22.635Z,4.90
2019-04-29T03:31:48.107Z,4.40
2019-04-29T03:34:13.812Z,4.50
2019-04-29T03:36:39.272Z,4.93
2019-04-29T03:39:06.286Z,4.70
2019-04-29T03:41:31.726Z,5.13
2019-04-29T03:43:57.195Z,4.40
2019-04-29T03:46:22.632Z,4.70
2019-04-29T03:48:48.119Z,4.27
2019-04-29T03:51:13.513Z,4.17
2019-04-29T03:53:39.135Z,4.43
2019-04-29T03:56:04.629Z,5.07
2019-04-29T03:58:30.159Z,4.43
2019-04-29T04:01:14.480Z,5.63
2019-04-29T04:03:46.876Z,5.20
2019-04-29T04:06:49.734Z,4.60
2019-04-29T04:09:18.131Z,5.20
2019-04-29T04:11:43.544Z,4.90
2019-04-29T04:14:09.002Z,5.43
2019-04-29T04:16:52.237Z,5.50
2019-04-29T04:19:18.585Z,4.87
2019-04-29T04:21:44.238Z,5.83
2019-04-29T04:24:09.702Z,5.20
2019-04-29T04:26:35.713Z,5.47
2019-04-29T04:29:01.094Z,5.77
2019-04-29T04:31:26.838Z,5.10
2019-04-29T04:33:52.461Z,4.93
2019-04-29T04:36:18.456Z,5.00
2019-04-29T04:38:44.154Z,5.67
2019-04-29T04:41:11.399Z,4.90
2019-04-29T04:43:37.154Z,4.70
2019-04-29T04:46:02.610Z,5.50
2019-04-29T04:48:30.900Z,5.10
2019-04-29T04:50:56.379Z,4.87
2019-04-29T04:53:22.106Z,5.20
2019-04-29T04:55:49.172Z,5.20
2019-04-29T04:58:14.943Z,5.30
2019-04-29T05:00:40.354Z,5.10
2019-04-29T05:03:05.832Z,5.00
2019-04-29T05:05:31.899Z,5.00
2019-04-29T05:07:57.362Z,5.63
2019-04-29T05:10:22.967Z,5.50
2019-04-29T05:12:48.421Z,5.77
2019-04-29T05:15:14.179Z,5.00
2019-04-29T05:17:39.651Z,5.33
2019-04-29T05:20:05.246Z,5.70
2019-04-29T05:22:30.706Z,5.57
2019-04-29T05:24:56.137Z,5.43
2019-04-29T05:27:22.046Z,5.20
2019-04-29T05:29:47.392Z,5.30
2019-04-29T05:32:12.863Z,5.60
2019-04-29T05:34:41.674Z,5.80
2019-04-29T05:37:24.921Z,5.73
2019-04-29T05:39:50.411Z,6.27
2019-04-29T05:42:17.198Z,5.43
2019-04-29T05:44:51.234Z,6.13
2019-04-29T05:47:23.211Z,5.37
2019-04-29T05:50:06.613Z,6.20
2019-04-29T05:52:49.802Z,6.50
2019-04-29T05:55:15.448Z,7.70
2019-04-29T05:57:40.897Z,9.00
2019-04-29T06:00:07.757Z,8.83
2019-04-29T06:02:38.335Z,9.97
2019-04-29T06:05:00.558Z,9.50
2019-04-29T06:07:26.969Z,10.77
2019-04-29T06:09:52.549Z,12.10
2019-04-29T06:12:18.030Z,12.27
2019-04-29T06:14:43.506Z,12.20
2019-04-29T06:17:08.975Z,15.27
2019-04-29T06:19:35.211Z,16.00
2019-04-29T06:22:03.886Z,16.63
2019-04-29T06:24:28.812Z,16.73
2019-04-29T06:26:54.298Z,16.83
2019-04-29T06:29:19.667Z,17.40
2019-04-29T06:31:45.261Z,18.07
2019-04-29T06:34:10.734Z,17.73
2019-04-29T06:36:36.193Z,19.73
2019-04-29T06:39:01.643Z,19.62
2019-04-29T06:41:27.119Z,19.07
2019-04-29T06:43:55.901Z,19.73
2019-04-29T06:46:19.779Z,18.83
2019-04-29T06:48:45.217Z,19.12
2019-04-29T06:51:10.694Z,18.50
2019-04-29T06:53:36.159Z,17.50
2019-04-29T06:56:01.567Z,18.05
2019-04-29T06:58:27.381Z,17.60
2019-04-29T07:00:55.786Z,17.85
2019-04-29T07:03:20.949Z,16.15
2019-04-29T07:05:47.383Z,16.90
2019-04-29T07:08:12.849Z,17.85
2019-04-29T07:10:38.401Z,18.20
2019-04-29T07:13:03.893Z,17.37
2019-04-29T07:15:29.608Z,17.05
2019-04-29T07:17:55.110Z,17.52
2019-04-29T07:20:20.559Z,16.52
2019-04-29T07:22:46.177Z,17.27
2019-04-29T07:25:11.845Z,18.45
2019-04-29T07:27:43.010Z,19.05
2019-04-29T07:30:06.577Z,18.50
2019-04-29T07:32:33.250Z,19.70
2019-04-29T07:34:58.717Z,19.25
2019-04-29T07:37:24.161Z,17.98
2019-04-29T07:39:49.661Z,18.80
2019-04-29T07:42:15.660Z,19.02
2019-04-29T07:45:12.093Z,18.65
2019-04-29T07:47:38.757Z,18.12
2019-04-29T07:50:04.370Z,19.10
2019-04-29T07:52:29.915Z,18.05
2019-04-29T07:54:56.288Z,20.20
2019-04-29T07:57:21.932Z,20.20
2019-04-29T07:59:47.390Z,19.50
2019-04-29T08:02:12.939Z,19.45
2019-04-29T08:04:40.410Z,16.77
2019-04-29T08:07:06.036Z,16.97
2019-04-29T08:09:31.879Z,17.98
2019-04-29T08:11:57.977Z,18.25
2019-04-29T08:14:25.740Z,16.97
2019-04-29T08:16:51.154Z,17.90
2019-04-29T08:19:16.552Z,16.62
2019-04-29T08:21:45.472Z,16.95
2019-04-29T08:24:11.588Z,18.27
2019-04-29T08:26:38.517Z,17.65
2019-04-29T08:29:03.513Z,17.35
2019-04-29T08:31:28.919Z,16.70
2019-04-29T08:33:54.327Z,15.43
2019-04-29T08:36:19.952Z,16.25
2019-04-29T08:38:45.415Z,16.40
2019-04-29T08:41:11.261Z,15.95
2019-04-29T08:44:15.784Z,16.57
2019-04-29T08:46:44.482Z,15.45
2019-04-29T08:49:12.090Z,15.75
2019-04-29T08:51:36.808Z,13.48
2019-04-29T08:54:02.571Z,13.10
2019-04-29T08:56:28.202Z,11.00
2019-04-29T08:58:53.660Z,12.37
2019-04-29T09:01:19.145Z,14.00
2019-04-29T09:03:44.595Z,15.63
2019-04-29T09:06:10.123Z,15.05
2019-04-29T09:08:35.586Z,15.03
2019-04-29T09:11:01.072Z,15.58
2019-04-29T09:13:26.779Z,16.67
2019-04-29T09:15:52.245Z,15.45
2019-04-29T09:18:17.703Z,14.47
2019-04-29T09:20:44.134Z,15.55
2019-04-29T09:23:12.148Z,15.53
2019-04-29T09:26:02.818Z,15.55
2019-04-29T09:28:27.948Z,15.30
2019-04-29T09:30:51.251Z,15.00
2019-04-29T09:33:16.853Z,14.87
2019-04-29T09:35:42.323Z,14.78
2019-04-29T09:38:07.789Z,14.70
2019-04-29T09:40:36.043Z,15.50
2019-04-29T09:43:21.498Z,12.50
2019-04-29T09:45:53.859Z,12.45
2019-04-29T09:48:20.268Z,13.03
2019-04-29T09:50:45.646Z,13.40
2019-04-29T09:53:11.379Z,12.75
2019-04-29T09:55:39.929Z,10.98
2019-04-29T09:58:04.582Z,11.08
2019-04-29T10:00:46.461Z,13.18
2019-04-29T10:03:30.866Z,12.53
2019-04-29T10:06:07.808Z,13.05
2019-04-29T10:08:33.370Z,12.10
2019-04-29T10:10:58.916Z,12.00
2019-04-29T10:13:24.516Z,10.40
2019-04-29T10:16:07.807Z,12.40
2019-04-29T10:18:41.339Z,13.10
2019-04-29T10:21:16.680Z,13.08
2019-04-29T10:23:40.267Z,13.83
2019-04-29T10:26:05.939Z,14.90
2019-04-29T10:28:35.245Z,14.83
2019-04-29T10:31:09.241Z,12.73
2019-04-29T10:33:34.947Z,12.58
2019-04-29T10:36:00.484Z,13.88
2019-04-29T10:38:25.868Z,12.20
2019-04-29T10:41:10.029Z,11.93
2019-04-29T10:44:00.663Z,11.25
2019-04-29T10:46:45.128Z,12.68
2019-04-29T10:49:18.092Z,12.50
2019-04-29T10:51:43.587Z,13.03
2019-04-29T10:54:09.166Z,11.15
2019-04-29T10:56:35.349Z,11.90
2019-04-29T10:59:04.593Z,11.40
2019-04-29T11:02:35.092Z,11.45
2019-04-29T11:05:20.110Z,10.38
2019-04-29T11:07:50.303Z,11.20
2019-04-29T11:10:29.627Z,10.50
2019-04-29T11:12:55.961Z,11.93
2019-04-29T11:15:23.814Z,11.50
2019-04-29T11:17:58.520Z,10.93
2019-04-29T11:20:21.136Z,10.75
2019-04-29T11:22:48.559Z,10.40
2019-04-29T11:25:40.627Z,11.45
2019-04-29T11:28:06.218Z,9.65
2019-04-29T11:30:34.947Z,10.80
2019-04-29T11:33:08.227Z,10.23
2019-04-29T11:35:39.226Z,10.63
2019-04-29T11:38:06.634Z,9.43
2019-04-29T11:40:43.092Z,9.18
2019-04-29T11:43:00.830Z,9.23
2019-04-29T11:45:33.744Z,10.23
2019-04-29T11:47:58.208Z,9.13
2019-04-29T11:50:36.305Z,9.00
2019-04-29T11:53:01.925Z,8.40
2019-04-29T11:55:27.530Z,9.00
2019-04-29T11:57:58.770Z,8.90
2019-04-29T12:00:53.544Z,8.98
2019-04-29T12:03:21.019Z,9.33
2019-04-29T12:05:53.526Z,10.08
2019-04-29T12:08:19.148Z,9.85
2019-04-29T12:10:52.094Z,8.68
2019-04-29T12:13:18.986Z,10.10
2019-04-29T12:16:03.107Z,10.75
2019-04-29T12:18:34.148Z,10.68
2019-04-29T12:21:08.099Z,9.70
2019-04-29T12:23:33.618Z,9.40
2019-04-29T12:26:03.047Z,9.63
2019-04-29T12:28:27.033Z,8.25
2019-04-29T12:30:54.411Z,8.95
2019-04-29T12:33:25.618Z,9.00
2019-04-29T12:35:58.581Z,10.82
2019-04-29T12:38:49.512Z,9.85
2019-04-29T12:41:25.327Z,10.68
2019-04-29T12:44:09.937Z,8.75
2019-04-29T12:46:44.500Z,7.80
2019-04-29T12:49:13.532Z,8.65
2019-04-29T12:51:37.262Z,8.33
2019-04-29T12:54:02.860Z,7.78
2019-04-29T12:56:43.314Z,9.48
2019-04-29T12:59:07.799Z,9.28
2019-04-29T13:01:51.577Z,8.15
2019-04-29T13:04:37.279Z,7.17
2019-04-29T13:07:30.945Z,7.37
2019-04-29T13:10:02.041Z,7.50
2019-04-29T13:12:30.148Z,7.97
2019-04-29T13:15:12.543Z,9.20
2019-04-29T13:17:44.077Z,8.05
2019-04-29T13:20:11.730Z,7.78
2019-04-29T13:22:37.755Z,7.70
2019-04-29T13:25:03.235Z,7.05
2019-04-29T13:27:28.856Z,8.05
2019-04-29T13:29:54.678Z,8.60
2019-04-29T13:32:20.496Z,7.40
2019-04-29T13:34:47.398Z,6.97
2019-04-29T13:37:20.619Z,7.97
2019-04-29T13:39:40.898Z,8.03
2019-04-29T13:42:09.069Z,8.23
2019-04-29T13:44:41.685Z,7.50
2019-04-29T13:47:13.754Z,7.58
2019-04-29T13:50:18.495Z,7.17
2019-04-29T13:52:31.238Z,8.63
2019-04-29T13:54:56.661Z,8.05
2019-04-29T13:57:22.327Z,8.03
2019-04-29T14:00:03.794Z,7.87
2019-04-29T14:02:36.799Z,6.60
2019-04-29T14:05:03.163Z,7.75
2019-04-29T14:07:28.770Z,7.30
2019-04-29T14:09:54.182Z,7.45
2019-04-29T14:14:47.325Z,7.28
2019-04-29T14:18:53.649Z,6.65
2019-04-29T14:19:42.355Z,6.00
2019-04-29T14:22:20.958Z,6.25
2019-04-29T14:24:34.984Z,6.30
2019-04-29T14:27:00.503Z,6.67
2019-04-29T14:29:28.316Z,5.90
2019-04-29T14:31:59.330Z,6.33
2019-04-29T14:34:36.613Z,6.28
2019-04-29T14:37:19.771Z,5.62
2019-04-29T14:39:37.067Z,4.45
2019-04-29T14:42:00.423Z,5.30
2019-04-29T14:44:33.918Z,4.90
2019-04-29T14:47:09.023Z,4.75
2019-04-29T14:49:47.414Z,4.20
2019-04-29T14:52:14.774Z,4.00
2019-04-29T14:54:41.816Z,4.53
2019-04-29T14:57:09.231Z,4.65
2019-04-29T14:59:35.050Z,4.80
2019-04-29T15:02:16.137Z,4.87
2019-04-29T15:04:40.754Z,6.03
2019-04-29T15:07:06.764Z,5.25
2019-04-29T15:09:45.874Z,4.50
2019-04-29T15:12:21.717Z,5.30
2019-04-29T15:15:01.502Z,5.42
2019-04-29T15:17:40.434Z,5.90
2019-04-29T15:20:25.205Z,5.72
2019-04-29T15:22:50.999Z,5.80
2019-04-29T15:25:20.866Z,5.12
2019-04-29T15:27:44.164Z,5.28
2019-04-29T15:30:10.388Z,5.12
2019-04-29T15:32:35.917Z,5.30
2019-04-29T15:35:01.385Z,4.70
2019-04-29T15:37:27.149Z,4.62
2019-04-29T15:39:52.679Z,5.40
2019-04-29T15:42:18.115Z,5.30
2019-04-29T15:44:43.694Z,5.40
2019-04-29T15:47:09.519Z,5.20
2019-04-29T15:49:34.976Z,5.33
2019-04-29T15:52:00.446Z,5.03
2019-04-29T15:54:26.275Z,5.67
2019-04-29T15:56:52.116Z,5.45
2019-04-29T15:59:17.878Z,5.00
2019-04-29T16:01:45.877Z,4.45
2019-04-29T16:04:15.743Z,5.05
2019-04-29T16:07:05.430Z,4.75
2019-04-29T16:09:52.549Z,5.60
2019-04-29T16:12:25.261Z,5.17
2019-04-29T16:14:50.552Z,5.08
2019-04-29T16:17:20.320Z,4.97
2019-04-29T16:19:43.203Z,4.53
2019-04-29T16:22:12.876Z,4.50
2019-04-29T16:24:38.418Z,4.90
2019-04-29T16:27:08.399Z,4.62
2019-04-29T16:29:30.473Z,4.85
2019-04-29T16:32:02.373Z,4.35
2019-04-29T16:34:23.016Z,4.42
2019-04-29T16:36:49.809Z,4.42
2019-04-29T16:39:15.880Z,4.35
2019-04-29T16:42:05.642Z,4.10
2019-04-29T16:44:36.219Z,3.50
2019-04-29T16:46:58.327Z,3.50
2019-04-29T16:49:23.953Z,3.77
2019-04-29T16:51:53.703Z,3.62
2019-04-29T16:54:20.400Z,3.55
2019-04-29T16:56:43.776Z,3.42
2019-04-29T16:59:09.673Z,3.58
2019-04-29T17:01:35.282Z,4.17
2019-04-29T17:04:05.462Z,3.80
2019-04-29T17:06:28.870Z,4.20
2019-04-29T17:09:10.959Z,4.00
2019-04-29T17:11:37.082Z,4.65
2019-04-29T17:14:09.877Z,3.98
2019-04-29T17:16:30.726Z,3.98
2019-04-29T17:18:56.212Z,4.30
2019-04-29T17:21:21.703Z,4.80
2019-04-29T17:23:47.187Z,4.42
2019-04-29T17:26:12.639Z,4.10
2019-04-29T17:28:44.963Z,3.77
2019-04-29T17:31:29.680Z,3.95
2019-04-29T17:34:53.925Z,4.15
2019-04-29T17:36:50.944Z,4.22
2019-04-29T17:39:17.376Z,4.72
2019-04-29T17:41:42.820Z,4.30
2019-04-29T17:44:38.765Z,4.08
2019-04-29T17:47:25.932Z,4.03
2019-04-29T17:50:01.936Z,4.72
2019-04-29T17:52:28.561Z,4.97
2019-04-29T17:54:57.873Z,4.28
2019-04-29T17:57:42.981Z,5.05
2019-04-29T18:00:43.511Z,5.05
2019-04-29T18:03:25.390Z,4.80
2019-04-29T18:06:18.857Z,5.00
2019-04-29T18:08:55.012Z,5.40
2019-04-29T18:11:20.997Z,5.40
2019-04-29T18:13:47.064Z,5.20
2019-04-29T18:16:19.159Z,4.65
2019-04-29T18:18:57.334Z,5.70
2019-04-29T18:21:43.138Z,5.20
2019-04-29T18:24:29.427Z,5.37
2019-04-29T18:27:04.053Z,5.35
2019-04-29T18:29:29.904Z,5.50
2019-04-29T18:31:55.685Z,5.85
2019-04-29T18:34:21.489Z,6.12
2019-04-29T18:36:47.653Z,6.95
2019-04-29T18:39:20.203Z,7.03
2019-04-29T18:41:44.861Z,7.37
2019-04-29T18:44:18.925Z,7.78
2019-04-29T18:46:45.900Z,8.15
2019-04-29T18:49:09.885Z,8.55
2019-04-29T18:51:35.669Z,9.28
2019-04-29T18:54:01.377Z,8.63
2019-04-29T18:56:27.194Z,9.23
2019-04-29T18:58:53.084Z,8.35
2019-04-29T19:01:19.718Z,9.15
2019-04-29T19:04:10.243Z,8.93
2019-04-29T19:06:33.199Z,8.70
2019-04-29T19:09:02.840Z,9.20
2019-04-29T19:11:32.629Z,9.78
2019-04-29T19:13:57.332Z,9.30
2019-04-29T19:16:23.697Z,9.30
2019-04-29T19:18:52.088Z,10.85
2019-04-29T19:21:18.109Z,11.33
2019-04-29T19:23:45.774Z,11.15
2019-04-29T19:26:11.781Z,10.80
2019-04-29T19:28:38.184Z,11.15
2019-04-29T19:31:09.463Z,11.30
2019-04-29T19:33:35.715Z,10.18
2019-04-29T19:35:59.122Z,11.30
2019-04-29T19:38:25.413Z,10.23
2019-04-29T19:40:51.351Z,11.63
2019-04-29T19:43:18.854Z,12.18
2019-04-29T19:45:44.702Z,11.63
2019-04-29T19:48:11.756Z,11.43
2019-04-29T19:50:37.946Z,12.13
2019-04-29T19:53:04.951Z,12.82
2019-04-29T19:55:33.313Z,12.80
2019-04-29T19:57:58.781Z,12.70
2019-04-29T20:00:29.492Z,13.10
2019-04-29T20:02:53.491Z,13.68
2019-04-29T20:05:31.385Z,14.60
2019-04-29T20:07:52.196Z,14.98
2019-04-29T20:10:19.036Z,14.80
2019-04-29T20:12:52.757Z,15.63
2019-04-29T20:15:13.009Z,15.23
2019-04-29T20:18:04.221Z,16.43
2019-04-29T20:20:38.689Z,15.98
2019-04-29T20:23:02.725Z,15.58
2019-04-29T20:25:31.040Z,15.10
2019-04-29T20:28:05.577Z,14.60
2019-04-29T20:30:26.069Z,14.80
2019-04-29T20:32:51.852Z,14.40
2019-04-29T20:35:18.698Z,14.07
2019-04-29T20:37:47.490Z,14.10
2019-04-29T20:40:12.267Z,14.07
2019-04-29T20:42:40.386Z,13.28
2019-04-29T20:45:05.705Z,13.38
2019-04-29T20:47:37.795Z,13.58
2019-04-29T20:49:59.199Z,12.23
2019-04-29T20:52:58.940Z,14.00
2019-04-29T20:55:20.158Z,12.05
2019-04-29T20:57:47.852Z,12.10
2019-04-29T21:00:14.077Z,11.95
2019-04-29T21:02:39.821Z,12.15
2019-04-29T21:05:09.641Z,13.65
2019-04-29T21:07:34.287Z,11.55
2019-04-29T21:10:03.878Z,13.15
2019-04-29T21:13:15.067Z,12.33
2019-04-29T21:15:52.001Z,10.18
2019-04-29T21:18:14.511Z,11.78
2019-04-29T21:20:40.801Z,12.28
2019-04-29T21:23:06.304Z,11.35
2019-04-29T21:25:31.800Z,9.67
2019-04-29T21:28:02.214Z,10.82
2019-04-29T21:30:35.065Z,10.23
2019-04-29T21:32:55.813Z,10.55
2019-04-29T21:35:31.660Z,9.95
2019-04-29T21:38:17.909Z,9.78
2019-04-29T21:40:49.550Z,10.38
2019-04-29T21:43:19.592Z,10.85
2019-04-29T21:45:48.346Z,11.33
2019-04-29T21:48:12.245Z,11.90
2019-04-29T21:50:38.136Z,11.38
2019-04-29T21:53:05.099Z,11.55
2019-04-29T21:55:31.203Z,12.63
2019-04-29T21:57:58.796Z,12.13
2019-04-29T22:00:25.763Z,12.03
2019-04-29T22:02:51.421Z,13.22
2019-04-29T22:05:18.450Z,12.15
2019-04-29T22:07:47.395Z,12.73
2019-04-29T22:10:12.148Z,13.10
2019-04-29T22:12:37.761Z,14.07
2019-04-29T22:15:03.326Z,13.77
2019-04-29T22:17:32.957Z,14.20
2019-04-29T22:19:57.391Z,13.98
2019-04-29T22:22:23.471Z,14.47
2019-04-29T22:24:51.204Z,11.97
2019-04-29T22:27:16.341Z,13.32
2019-04-29T22:29:41.740Z,13.57
2019-04-29T22:32:14.351Z,14.78
2019-04-29T22:34:35.451Z,13.43
2019-04-29T22:37:01.327Z,14.18
2019-04-29T22:39:29.978Z,13.48
2019-04-29T22:42:23.552Z,13.93
2019-04-29T22:44:52.635Z,13.15
2019-04-29T22:47:17.335Z,12.98
2019-04-29T22:49:43.851Z,13.13
2019-04-29T22:52:09.341Z,14.18
2019-04-29T22:54:35.327Z,12.60
2019-04-29T22:57:02.112Z,15.10
2019-04-29T22:59:28.194Z,15.90
2019-04-29T23:01:55.563Z,16.12
2019-04-29T23:04:20.867Z,16.15
2019-04-29T23:06:48.149Z,14.43
2019-04-29T23:09:13.684Z,15.13
2019-04-29T23:11:40.652Z,16.97
2019-04-29T23:14:09.918Z,16.15
2019-04-29T23:16:35.670Z,14.87
2019-04-29T23:19:01.550Z,17.07
2019-04-29T23:21:47.123Z,16.50
2019-04-29T23:24:29.738Z,15.88
2019-04-29T23:26:55.207Z,15.68
2019-04-29T23:29:20.754Z,16.30
2019-04-29T23:31:46.246Z,16.48
2019-04-29T23:34:11.738Z,18.10
2019-04-29T23:36:37.204Z,17.30
2019-04-29T23:39:02.681Z,16.62
2019-04-29T23:41:33.051Z,18.80
2019-04-29T23:43:59.990Z,18.37
2019-04-29T23:46:23.026Z,18.10
2019-04-29T23:48:48.416Z,18.85
2019-04-29T23:51:15.354Z,18.80
2019-04-29T23:53:40.929Z,18.30
2019-04-29T23:56:09.626Z,19.05
2019-04-29T23:58:47.043Z,19.50
